createdAt,value
2019-05-12T00:01:52.541Z,1.50
2019-05-12T00:04:19.541Z,1.27
2019-05-12T00:06:47.902Z,1.30
2019-05-12T00:09:15.022Z,1.30
2019-05-12T00:11:42.052Z,1.10
2019-05-12T00:14:09.112Z,1.10
2019-05-12T00:16:38.382Z,1.20
2019-05-12T00:19:05.062Z,1.10
2019-05-12T00:21:32.116Z,1.10
2019-05-12T00:24:11.432Z,1.23
2019-05-12T00:26:39.006Z,1.20
2019-05-12T00:29:07.712Z,1.03
2019-05-12T00:31:34.946Z,1.10
2019-05-12T00:34:01.982Z,1.23
2019-05-12T00:36:29.347Z,1.00
2019-05-12T00:38:57.991Z,1.00
2019-05-12T00:41:25.162Z,1.10
2019-05-12T00:43:52.210Z,1.07
2019-05-12T00:46:19.218Z,1.30
2019-05-12T00:48:48.216Z,1.13
2019-05-12T00:51:15.172Z,1.10
2019-05-12T00:53:43.518Z,1.00
2019-05-12T00:56:10.594Z,1.03
2019-05-12T00:58:38.249Z,1.00
2019-05-12T01:01:07.969Z,1.20
2019-05-12T01:03:34.268Z,1.30
2019-05-12T01:06:01.305Z,1.40
2019-05-12T01:08:28.342Z,1.03
2019-05-12T01:10:55.343Z,1.20
2019-05-12T01:13:22.381Z,1.23
2019-05-12T01:15:49.409Z,1.50
2019-05-12T01:18:18.125Z,1.40
2019-05-12T01:20:47.791Z,1.30
2019-05-12T01:23:14.429Z,1.17
2019-05-12T01:25:41.441Z,1.40
2019-05-12T01:28:08.600Z,1.40
2019-05-12T01:30:35.677Z,1.10
2019-05-12T01:33:02.734Z,1.27
2019-05-12T01:35:29.765Z,1.30
2019-05-12T01:38:01.169Z,1.30
2019-05-12T01:40:28.235Z,1.20
2019-05-12T01:42:54.685Z,1.80
2019-05-12T01:45:21.679Z,1.30
2019-05-12T01:47:48.736Z,1.40
2019-05-12T01:50:17.754Z,1.20
2019-05-12T01:52:44.668Z,0.90
2019-05-12T01:55:11.808Z,1.07
2019-05-12T01:57:38.943Z,1.00
2019-05-12T02:00:27.924Z,1.27
2019-05-12T02:02:54.432Z,1.20
2019-05-12T02:05:21.466Z,1.30
2019-05-12T02:07:53.358Z,1.40
2019-05-12T02:10:20.569Z,1.10
2019-05-12T02:12:49.092Z,1.10
2019-05-12T02:15:18.537Z,1.30
2019-05-12T02:17:47.962Z,1.33
2019-05-12T02:20:15.315Z,1.03
2019-05-12T02:22:42.390Z,1.10
2019-05-12T02:25:10.403Z,1.20
2019-05-12T02:27:38.304Z,1.00
2019-05-12T02:30:09.687Z,1.33
2019-05-12T02:32:48.114Z,1.13
2019-05-12T02:35:06.260Z,1.40
2019-05-12T02:37:35.758Z,1.30
2019-05-12T02:40:04.718Z,1.23
2019-05-12T02:42:34.209Z,1.10
2019-05-12T02:45:00.304Z,1.10
2019-05-12T02:47:27.320Z,1.17
2019-05-12T02:49:54.569Z,1.40
2019-05-12T02:52:24.979Z,1.70
2019-05-12T02:54:56.913Z,1.20
2019-05-12T02:57:25.243Z,1.20
2019-05-12T02:59:54.046Z,1.20
2019-05-12T03:02:24.647Z,1.20
2019-05-12T03:04:54.756Z,1.10
2019-05-12T03:07:25.399Z,1.60
2019-05-12T03:10:14.928Z,1.37
2019-05-12T03:12:44.960Z,1.20
2019-05-12T03:15:14.839Z,1.43
2019-05-12T03:17:39.992Z,1.17
2019-05-12T03:20:07.121Z,1.30
2019-05-12T03:22:35.378Z,1.40
2019-05-12T03:25:11.368Z,1.60
2019-05-12T03:27:34.879Z,1.67
2019-05-12T03:30:00.673Z,1.30
2019-05-12T03:32:28.385Z,1.60
2019-05-12T03:34:57.985Z,1.60
2019-05-12T03:37:30.720Z,1.43
2019-05-12T03:39:54.540Z,1.30
2019-05-12T03:42:24.835Z,1.30
2019-05-12T03:44:50.578Z,1.53
2019-05-12T03:47:17.626Z,1.80
2019-05-12T03:49:45.446Z,1.70
2019-05-12T03:52:15.296Z,1.40
2019-05-12T03:54:44.967Z,1.80
2019-05-12T03:57:10.673Z,1.37
2019-05-12T03:59:37.726Z,1.20
2019-05-12T04:02:06.855Z,1.13
2019-05-12T04:04:34.770Z,1.40
2019-05-12T04:07:05.048Z,1.57
2019-05-12T04:09:31.073Z,1.13
2019-05-12T04:11:59.922Z,1.13
2019-05-12T04:14:26.933Z,1.10
2019-05-12T04:16:55.094Z,1.00
2019-05-12T04:19:24.778Z,1.30
2019-05-12T04:21:54.580Z,0.90
2019-05-12T04:24:20.146Z,1.20
2019-05-12T04:26:47.217Z,1.23
2019-05-12T04:29:15.505Z,1.50
2019-05-12T04:31:44.232Z,1.47
2019-05-12T04:34:15.646Z,1.30
2019-05-12T04:36:40.434Z,1.30
2019-05-12T04:39:07.720Z,1.10
2019-05-12T04:41:35.595Z,1.27
2019-05-12T04:44:05.861Z,1.10
2019-05-12T04:46:34.687Z,1.00
2019-05-12T04:49:04.979Z,1.20
2019-05-12T04:51:30.839Z,1.50
2019-05-12T04:53:57.880Z,1.20
2019-05-12T04:56:25.252Z,1.20
2019-05-12T04:58:54.611Z,1.40
2019-05-12T05:01:25.006Z,1.00
2019-05-12T05:03:50.949Z,1.20
2019-05-12T05:06:17.965Z,1.30
2019-05-12T05:08:45.008Z,1.17
2019-05-12T05:11:14.658Z,0.93
2019-05-12T05:13:41.014Z,1.00
2019-05-12T05:16:08.068Z,1.07
2019-05-12T05:18:35.096Z,0.90
2019-05-12T05:21:04.538Z,1.00
2019-05-12T05:23:33.385Z,0.93
2019-05-12T05:26:00.026Z,1.00
2019-05-12T05:28:27.099Z,1.00
2019-05-12T05:30:54.115Z,1.07
2019-05-12T05:33:23.632Z,0.97
2019-05-12T05:35:50.086Z,1.00
2019-05-12T05:38:20.695Z,1.10
2019-05-12T05:40:46.027Z,0.80
2019-05-12T05:43:18.242Z,1.00
2019-05-12T05:45:43.854Z,0.80
2019-05-12T05:48:13.389Z,0.97
2019-05-12T05:50:39.932Z,0.90
2019-05-12T05:53:09.202Z,0.80
2019-05-12T05:55:35.902Z,0.90
2019-05-12T05:58:07.853Z,0.70
2019-05-12T06:00:34.091Z,0.90
2019-05-12T06:03:00.817Z,0.80
2019-05-12T06:05:30.801Z,1.00
2019-05-12T06:07:56.774Z,0.87
2019-05-12T06:10:34.812Z,0.77
2019-05-12T06:12:54.262Z,1.00
2019-05-12T06:15:23.437Z,1.33
2019-05-12T06:17:50.395Z,1.20
2019-05-12T06:20:17.429Z,0.70
2019-05-12T06:22:48.577Z,1.00
2019-05-12T06:25:16.123Z,0.90
2019-05-12T06:27:44.309Z,1.10
2019-05-12T06:30:14.552Z,0.83
2019-05-12T06:32:41.194Z,0.90
2019-05-12T06:35:09.497Z,1.00
2019-05-12T06:37:36.552Z,0.70
2019-05-12T06:40:03.765Z,0.80
2019-05-12T06:42:30.762Z,0.90
2019-05-12T06:44:58.293Z,0.80
2019-05-12T06:47:25.546Z,1.33
2019-05-12T06:49:54.780Z,0.70
2019-05-12T06:52:23.621Z,0.90
2019-05-12T06:54:54.698Z,0.90
2019-05-12T06:57:25.070Z,0.90
2019-05-12T06:59:51.434Z,0.70
2019-05-12T07:02:17.298Z,0.80
2019-05-12T07:04:49.750Z,0.90
2019-05-12T07:07:14.287Z,0.70
2019-05-12T07:09:51.940Z,0.90
2019-05-12T07:12:10.366Z,0.87
2019-05-12T07:14:37.427Z,0.90
2019-05-12T07:17:14.507Z,0.87
2019-05-12T07:19:43.602Z,0.97
2019-05-12T07:22:19.908Z,0.90
2019-05-12T07:24:40.953Z,0.90
2019-05-12T07:27:09.325Z,0.90
2019-05-12T07:29:36.505Z,0.97
2019-05-12T07:32:07.250Z,0.80
2019-05-12T07:34:33.399Z,0.80
2019-05-12T07:37:01.450Z,0.90
2019-05-12T07:39:29.761Z,0.90
2019-05-12T07:41:59.105Z,0.80
2019-05-12T07:44:32.108Z,0.97
2019-05-12T07:46:57.544Z,1.00
2019-05-12T07:49:34.290Z,1.10
2019-05-12T07:51:54.214Z,0.90
2019-05-12T07:54:23.523Z,1.30
2019-05-12T07:56:50.365Z,0.73
2019-05-12T07:59:17.406Z,1.00
2019-05-12T08:01:51.680Z,1.20
2019-05-12T08:04:13.560Z,0.87
2019-05-12T08:06:44.508Z,1.00
2019-05-12T08:09:09.515Z,0.90
2019-05-12T08:11:38.640Z,1.17
2019-05-12T08:14:05.542Z,1.10
2019-05-12T08:16:36.792Z,0.90
2019-05-12T08:19:03.755Z,0.90
2019-05-12T08:21:34.888Z,1.00
2019-05-12T08:23:59.353Z,0.60
2019-05-12T08:26:26.377Z,0.90
2019-05-12T08:28:53.666Z,0.80
2019-05-12T08:31:23.537Z,0.73
2019-05-12T08:33:49.574Z,1.13
2019-05-12T08:36:16.671Z,0.83
2019-05-12T08:38:44.431Z,0.80
2019-05-12T08:41:11.652Z,0.80
2019-05-12T08:43:40.449Z,0.60
2019-05-12T08:46:12.201Z,0.70
2019-05-12T08:48:36.539Z,0.90
2019-05-12T08:51:05.266Z,0.63
2019-05-12T08:53:33.642Z,0.60
2019-05-12T08:56:06.643Z,0.50
2019-05-12T08:58:34.188Z,0.80
2019-05-12T09:00:58.669Z,0.80
2019-05-12T09:03:30.324Z,0.70
2019-05-12T09:05:54.640Z,0.70
2019-05-12T09:08:24.125Z,0.80
2019-05-12T09:10:54.705Z,0.70
2019-05-12T09:13:19.746Z,0.60
2019-05-12T09:15:46.761Z,0.60
2019-05-12T09:18:14.440Z,0.70
2019-05-12T09:20:48.938Z,0.57
2019-05-12T09:23:10.666Z,0.80
2019-05-12T09:25:39.328Z,0.60
2019-05-12T09:28:06.874Z,0.80
2019-05-12T09:30:34.007Z,0.73
2019-05-12T09:33:01.047Z,0.60
2019-05-12T09:35:28.618Z,0.50
2019-05-12T09:37:57.099Z,0.70
2019-05-12T09:40:24.754Z,0.80
2019-05-12T09:42:53.317Z,0.80
2019-05-12T09:45:20.467Z,0.80
2019-05-12T09:47:47.645Z,0.63
2019-05-12T09:50:20.135Z,0.80
2019-05-12T09:52:44.164Z,0.93
2019-05-12T09:55:11.303Z,0.70
2019-05-12T09:57:40.770Z,0.80
2019-05-12T10:00:07.683Z,0.90
2019-05-12T10:02:34.703Z,0.70
2019-05-12T10:05:03.951Z,1.00
2019-05-12T10:07:30.757Z,1.00
2019-05-12T10:09:59.169Z,0.90
2019-05-12T10:12:29.519Z,1.00
2019-05-12T10:14:55.306Z,0.83
2019-05-12T10:17:26.277Z,0.97
2019-05-12T10:19:56.213Z,0.73
2019-05-12T10:22:23.527Z,1.07
2019-05-12T10:24:55.910Z,1.00
2019-05-12T10:27:21.241Z,0.83
2019-05-12T10:29:48.472Z,1.00
2019-05-12T10:32:15.488Z,1.20
2019-05-12T10:34:44.376Z,1.00
2019-05-12T10:37:13.388Z,1.10
2019-05-12T10:39:40.430Z,1.00
2019-05-12T10:42:07.478Z,1.00
2019-05-12T10:44:39.192Z,0.97
2019-05-12T10:47:05.113Z,1.00
2019-05-12T10:49:33.739Z,0.97
2019-05-12T10:52:00.905Z,1.00
2019-05-12T10:54:27.906Z,1.00
2019-05-12T10:56:54.960Z,1.20
2019-05-12T10:59:32.413Z,1.10
2019-05-12T11:01:50.930Z,1.10
2019-05-12T11:04:23.367Z,0.90
2019-05-12T11:06:48.491Z,1.30
2019-05-12T11:09:15.753Z,1.20
2019-05-12T11:11:46.769Z,1.07
2019-05-12T11:14:11.717Z,1.00
2019-05-12T11:16:42.528Z,1.40
2019-05-12T11:19:10.604Z,1.30
2019-05-12T11:21:37.800Z,0.90
2019-05-12T11:24:04.817Z,1.10
2019-05-12T11:26:31.861Z,1.00
2019-05-12T11:28:58.910Z,1.20
2019-05-12T11:31:25.919Z,1.30
2019-05-12T11:33:54.131Z,1.13
2019-05-12T11:36:24.098Z,0.93
2019-05-12T11:38:53.228Z,1.30
2019-05-12T11:41:20.521Z,1.30
2019-05-12T11:43:47.587Z,1.23
2019-05-12T11:46:14.587Z,1.30
2019-05-12T11:48:46.408Z,1.77
2019-05-12T11:51:10.552Z,1.10
2019-05-12T11:53:37.572Z,1.27
2019-05-12T11:56:07.573Z,1.40
2019-05-12T11:58:33.673Z,1.47
2019-05-12T12:01:06.321Z,1.07
2019-05-12T12:03:33.571Z,1.10
2019-05-12T12:06:00.449Z,1.10
2019-05-12T12:08:35.723Z,1.13
2019-05-12T12:10:56.603Z,1.30
2019-05-12T12:13:28.386Z,1.00
2019-05-12T12:15:52.619Z,1.30
2019-05-12T12:18:19.659Z,1.20
2019-05-12T12:20:46.870Z,1.40
2019-05-12T12:23:14.193Z,1.30
2019-05-12T12:25:43.133Z,1.20
2019-05-12T12:28:13.489Z,1.60
2019-05-12T12:30:40.112Z,1.30
2019-05-12T12:33:07.131Z,1.10
2019-05-12T12:35:34.801Z,1.40
2019-05-12T12:38:03.532Z,1.73
2019-05-12T12:40:30.858Z,1.20
2019-05-12T12:42:57.910Z,2.23
2019-05-12T12:45:50.646Z,1.63
2019-05-12T12:48:19.457Z,1.00
2019-05-12T12:50:46.562Z,1.47
2019-05-12T12:53:13.695Z,1.40
2019-05-12T12:55:43.443Z,1.60
2019-05-12T12:58:09.623Z,1.10
2019-05-12T13:00:46.634Z,1.20
2019-05-12T13:03:05.604Z,1.30
2019-05-12T13:05:34.509Z,1.10
2019-05-12T13:08:04.080Z,1.10
2019-05-12T13:10:30.494Z,1.10
2019-05-12T13:13:00.936Z,1.20
2019-05-12T13:15:26.504Z,1.07
2019-05-12T13:17:53.528Z,1.00
2019-05-12T13:20:23.663Z,1.33
2019-05-12T13:22:50.241Z,1.10
2019-05-12T13:25:17.257Z,1.30
2019-05-12T13:27:44.308Z,1.30
2019-05-12T13:30:18.598Z,1.00
2019-05-12T13:32:40.444Z,1.10
2019-05-12T13:35:14.729Z,1.30
2019-05-12T13:37:36.869Z,0.80
2019-05-12T13:40:04.268Z,1.40
2019-05-12T13:42:35.759Z,1.00
2019-05-12T13:45:00.204Z,1.13
2019-05-12T13:47:32.405Z,1.23
2019-05-12T13:49:56.183Z,1.17
2019-05-12T13:52:26.383Z,1.17
2019-05-12T13:54:52.142Z,1.20
2019-05-12T13:57:19.550Z,1.07
2019-05-12T13:59:46.591Z,1.17
2019-05-12T14:02:21.815Z,1.20
2019-05-12T14:04:44.355Z,1.20
2019-05-12T14:07:17.784Z,1.20
2019-05-12T14:09:40.384Z,1.30
2019-05-12T14:12:07.380Z,1.17
2019-05-12T14:14:34.442Z,1.20
2019-05-12T14:17:03.931Z,1.10
2019-05-12T14:19:35.413Z,1.03
2019-05-12T14:21:59.364Z,1.13
2019-05-12T14:24:26.403Z,1.30
2019-05-12T14:26:53.593Z,1.27
2019-05-12T14:29:25.763Z,1.40
2019-05-12T14:31:54.504Z,1.40
2019-05-12T14:34:20.761Z,1.30
2019-05-12T14:36:47.410Z,1.00
2019-05-12T14:39:14.514Z,1.87
2019-05-12T14:41:44.567Z,1.27
2019-05-12T14:44:10.547Z,1.30
2019-05-12T14:46:40.075Z,1.37
2019-05-12T14:49:06.485Z,1.30
2019-05-12T14:51:33.555Z,1.20
2019-05-12T14:54:00.542Z,1.60
2019-05-12T14:56:27.552Z,1.30
2019-05-12T14:58:56.612Z,1.20
2019-05-12T15:01:23.896Z,1.60
2019-05-12T15:03:53.509Z,1.30
2019-05-12T15:06:25.703Z,1.30
2019-05-12T15:08:49.688Z,1.20
2019-05-12T15:11:16.713Z,1.30
2019-05-12T15:13:43.799Z,1.53
2019-05-12T15:16:10.842Z,1.40
2019-05-12T15:18:39.440Z,1.47
2019-05-12T15:21:06.777Z,1.60
2019-05-12T15:23:37.251Z,1.30
2019-05-12T15:26:04.351Z,1.57
2019-05-12T15:28:33.708Z,1.70
2019-05-12T15:31:00.757Z,1.37
2019-05-12T15:33:27.823Z,1.13
2019-05-12T15:35:54.961Z,1.30
2019-05-12T15:38:23.933Z,1.13
2019-05-12T15:40:50.896Z,2.30
2019-05-12T15:43:17.915Z,1.43
2019-05-12T15:45:49.001Z,1.30
2019-05-12T15:48:14.521Z,1.30
2019-05-12T15:50:45.429Z,1.40
2019-05-12T15:53:13.726Z,1.70
2019-05-12T15:55:39.535Z,1.33
2019-05-12T15:58:06.547Z,1.20
2019-05-12T16:00:34.419Z,1.40
2019-05-12T16:03:01.516Z,1.30
2019-05-12T16:05:30.937Z,1.10
2019-05-12T16:07:57.450Z,1.20
2019-05-12T16:10:24.500Z,1.30
2019-05-12T16:12:51.564Z,1.03
2019-05-12T16:15:19.418Z,1.30
2019-05-12T16:17:46.626Z,1.43
2019-05-12T16:20:14.364Z,1.40
2019-05-12T16:22:44.908Z,1.30
2019-05-12T16:25:10.871Z,1.37
2019-05-12T16:27:37.874Z,1.20
2019-05-12T16:30:05.721Z,1.23
2019-05-12T16:32:42.438Z,1.47
2019-05-12T16:35:05.083Z,1.40
2019-05-12T16:37:31.472Z,1.53
2019-05-12T16:39:59.541Z,1.40
2019-05-12T16:42:27.448Z,1.40
2019-05-12T16:44:56.233Z,1.30
2019-05-12T16:47:25.071Z,1.30
2019-05-12T16:49:53.440Z,1.37
2019-05-12T16:52:20.573Z,1.20
2019-05-12T16:54:47.588Z,1.00
2019-05-12T16:57:18.113Z,1.43
2019-05-12T16:59:43.894Z,1.20
2019-05-12T17:02:10.914Z,1.30
2019-05-12T17:04:37.937Z,1.40
2019-05-12T17:07:09.917Z,1.30
2019-05-12T17:09:33.891Z,1.20
2019-05-12T17:12:00.920Z,1.30
2019-05-12T17:14:28.820Z,1.30
2019-05-12T17:16:55.954Z,1.40
2019-05-12T17:19:23.633Z,1.50
2019-05-12T17:21:55.502Z,1.50
2019-05-12T17:24:19.889Z,1.30
2019-05-12T17:26:46.915Z,1.63
2019-05-12T17:29:15.125Z,1.63
2019-05-12T17:31:44.255Z,1.90
2019-05-12T17:34:11.102Z,1.30
2019-05-12T17:36:38.093Z,1.23
2019-05-12T17:39:06.430Z,1.40
2019-05-12T17:41:40.270Z,1.40
2019-05-12T17:44:04.322Z,1.50
2019-05-12T17:46:32.421Z,1.53
2019-05-12T17:49:00.410Z,1.27
2019-05-12T17:51:30.859Z,1.50
2019-05-12T17:53:56.385Z,1.60
2019-05-12T17:56:25.197Z,1.40
2019-05-12T17:58:52.378Z,1.50
2019-05-12T18:01:23.099Z,1.50
2019-05-12T18:03:50.457Z,1.50
2019-05-12T18:06:20.286Z,1.70
2019-05-12T18:08:46.251Z,1.90
2019-05-12T18:11:15.960Z,1.50
2019-05-12T18:13:42.275Z,1.67
2019-05-12T18:16:11.608Z,1.50
2019-05-12T18:18:38.525Z,1.30
2019-05-12T18:21:05.673Z,1.57
2019-05-12T18:23:34.417Z,1.47
2019-05-12T18:26:03.019Z,1.73
2019-05-12T18:28:30.650Z,1.33
2019-05-12T18:30:57.699Z,1.50
2019-05-12T18:33:33.366Z,1.27
2019-05-12T18:35:54.413Z,1.67
2019-05-12T18:38:26.183Z,1.27
2019-05-12T18:40:50.662Z,1.50
2019-05-12T18:43:17.670Z,1.70
2019-05-12T18:45:48.820Z,1.30
2019-05-12T18:48:17.876Z,1.60
2019-05-12T18:50:44.169Z,1.60
2019-05-12T18:53:14.926Z,1.63
2019-05-12T18:55:40.593Z,1.70
2019-05-12T18:58:07.615Z,1.90
2019-05-12T19:00:34.788Z,1.50
2019-05-12T19:03:06.137Z,1.57
2019-05-12T19:05:31.120Z,2.10
2019-05-12T19:07:58.169Z,1.60
2019-05-12T19:10:25.331Z,1.93
2019-05-12T19:13:01.020Z,1.70
2019-05-12T19:15:22.073Z,1.63
2019-05-12T19:17:49.427Z,1.50
2019-05-12T19:20:19.564Z,1.53
2019-05-12T19:22:56.146Z,1.37
2019-05-12T19:25:14.997Z,1.40
2019-05-12T19:27:45.764Z,1.53
2019-05-12T19:30:13.812Z,1.70
2019-05-12T19:32:40.657Z,1.40
2019-05-12T19:35:09.521Z,1.60
2019-05-12T19:37:36.624Z,1.57
2019-05-12T19:40:12.519Z,1.60
2019-05-12T19:42:33.095Z,1.63
2019-05-12T19:45:00.386Z,1.40
2019-05-12T19:47:33.822Z,1.67
2019-05-12T19:49:59.441Z,1.73
2019-05-12T19:52:26.922Z,1.33
2019-05-12T19:54:54.045Z,1.83
2019-05-12T19:57:23.462Z,1.70
2019-05-12T19:59:52.352Z,1.40
2019-05-12T20:02:19.496Z,1.40
2019-05-12T20:04:51.862Z,1.40
2019-05-12T20:07:18.562Z,1.50
2019-05-12T20:09:55.062Z,1.63
2019-05-12T20:12:18.799Z,1.10
2019-05-12T20:14:43.730Z,1.43
2019-05-12T20:17:10.764Z,1.50
2019-05-12T20:19:37.994Z,1.70
2019-05-12T20:22:05.046Z,1.30
2019-05-12T20:24:32.088Z,1.40
2019-05-12T20:26:59.154Z,1.60
2019-05-12T20:29:33.461Z,1.90
2019-05-12T20:31:55.156Z,1.60
2019-05-12T20:34:24.421Z,1.60
2019-05-12T20:36:53.526Z,1.80
2019-05-12T20:39:22.367Z,1.80
2019-05-12T20:41:48.990Z,1.90
2019-05-12T20:44:19.922Z,1.47
2019-05-12T20:46:45.276Z,2.13
2019-05-12T20:49:14.860Z,1.67
2019-05-12T20:51:41.277Z,1.63
2019-05-12T20:54:16.123Z,1.53
2019-05-12T20:56:37.221Z,1.40
2019-05-12T20:59:04.375Z,1.70
2019-05-12T21:01:33.489Z,1.30
2019-05-12T21:04:00.383Z,1.30
2019-05-12T21:06:32.321Z,1.60
2019-05-12T21:08:56.812Z,1.20
2019-05-12T21:11:24.612Z,1.40
2019-05-12T21:13:54.391Z,1.90
2019-05-12T21:16:30.842Z,1.50
2019-05-12T21:18:56.323Z,1.53
2019-05-12T21:21:18.793Z,1.50
2019-05-12T21:23:53.743Z,1.37
2019-05-12T21:26:14.775Z,1.37
2019-05-12T21:28:46.118Z,1.77
2019-05-12T21:31:10.798Z,1.67
2019-05-12T21:33:41.608Z,1.70
2019-05-12T21:36:06.805Z,1.53
2019-05-12T21:38:34.144Z,1.43
2019-05-12T21:41:02.194Z,1.70
2019-05-12T21:43:32.473Z,1.33
2019-05-12T21:46:01.031Z,1.30
2019-05-12T21:48:29.285Z,1.77
2019-05-12T21:50:56.564Z,1.30
2019-05-12T21:53:23.961Z,1.43
2019-05-12T21:55:57.710Z,1.63
2019-05-12T21:58:20.080Z,1.20
2019-05-12T22:01:00.049Z,1.17
2019-05-12T22:03:19.919Z,1.50
2019-05-12T22:05:51.489Z,1.43
2019-05-12T22:08:22.039Z,1.60
2019-05-12T22:10:47.027Z,1.60
2019-05-12T22:13:17.073Z,1.60
2019-05-12T22:15:43.071Z,1.93
2019-05-12T22:18:10.141Z,2.27
2019-05-12T22:20:37.196Z,1.83
2019-05-12T22:23:11.978Z,1.90
2019-05-12T22:25:34.470Z,1.97
2019-05-12T22:28:05.395Z,1.70
2019-05-12T22:30:31.538Z,1.63
2019-05-12T22:32:59.568Z,1.50
2019-05-12T22:35:27.643Z,1.37
2019-05-12T22:37:54.671Z,1.57
2019-05-12T22:40:23.567Z,1.40
2019-05-12T22:42:56.134Z,1.87
2019-05-12T22:45:19.631Z,1.60
2019-05-12T22:47:49.230Z,1.60
2019-05-12T22:50:15.584Z,1.60
2019-05-12T22:52:49.332Z,1.43
2019-05-12T22:55:14.810Z,1.60
2019-05-12T22:57:43.557Z,1.73
2019-05-12T23:00:13.377Z,2.03
2019-05-12T23:02:40.130Z,1.30
2019-05-12T23:05:10.299Z,1.50
2019-05-12T23:07:36.173Z,1.80
2019-05-12T23:10:06.931Z,1.77
2019-05-12T23:12:34.312Z,1.47
2019-05-12T23:15:06.340Z,1.40
2019-05-12T23:17:30.533Z,1.80
2019-05-12T23:19:57.536Z,1.20
2019-05-12T23:22:29.532Z,1.10
2019-05-12T23:24:54.726Z,1.30
2019-05-12T23:27:28.163Z,1.07
2019-05-12T23:29:50.804Z,1.67
2019-05-12T23:32:17.828Z,1.33
2019-05-12T23:34:53.070Z,1.40
2019-05-12T23:37:14.242Z,1.10
2019-05-12T23:39:41.375Z,1.30
2019-05-12T23:42:08.520Z,1.50
2019-05-12T23:44:35.597Z,1.37
2019-05-12T23:47:04.337Z,1.93
2019-05-12T23:49:33.730Z,1.63
2019-05-12T23:52:00.554Z,1.20
2019-05-12T23:54:27.566Z,1.17
2019-05-12T23:56:54.594Z,1.20
2019-05-12T23:59:23.846Z,1.40
